Time;durP1;ratioP1;P1;durP2;ratioP2;P2;SDS_P1;SDS_P2;PMS_P1;PMS_P2;Temp;Humidity;BMP_temperature;BMP_pressure;BME280_temperature;BME280_humidity;BME280_pressure;Samples;Min_cycle;Max_cycle;Signal;HPM_P1;HPM_P2
2023/08/20 00:01:24;;;;;;;10.90;3.93;;;17.30;99.90;;;;;;5138470;27;20035;-77
2023/08/20 00:03:51;;;;;;;10.20;4.03;;;17.30;99.90;;;;;;5156673;27;20081;-77
2023/08/20 00:06:18;;;;;;;8.73;3.83;;;17.30;99.90;;;;;;5156978;27;20079;-77
2023/08/20 00:08:44;;;;;;;13.90;3.80;;;17.20;99.90;;;;;;5156622;27;20050;-77
2023/08/20 00:11:11;;;;;;;16.20;6.43;;;17.20;99.90;;;;;;5157089;27;20400;-77
2023/08/20 00:13:36;;;;;;;12.03;4.80;;;17.20;99.90;;;;;;5156584;27;20459;-77
2023/08/20 00:16:03;;;;;;;13.60;4.50;;;17.20;99.90;;;;;;5156416;27;20078;-78
2023/08/20 00:18:29;;;;;;;12.17;4.53;;;17.10;99.90;;;;;;5156725;27;20406;-78
2023/08/20 00:20:55;;;;;;;10.53;4.03;;;17.10;99.90;;;;;;5120761;27;20066;-77
2023/08/20 00:23:22;;;;;;;9.77;3.73;;;17.10;99.90;;;;;;5156661;27;20082;-77
2023/08/20 00:25:48;;;;;;;9.93;3.53;;;17.10;99.90;;;;;;5156311;27;20042;-77
2023/08/20 00:28:13;;;;;;;7.97;3.07;;;17.10;99.90;;;;;;5138108;27;20047;-77
2023/08/20 00:30:39;;;;;;;10.47;3.60;;;17.10;99.90;;;;;;5156222;27;20546;-77
2023/08/20 00:33:05;;;;;;;15.80;5.20;;;17.10;99.90;;;;;;5156481;27;20053;-77
2023/08/20 00:35:31;;;;;;;12.13;3.60;;;17.00;99.90;;;;;;5156517;27;20062;-77
2023/08/20 00:37:56;;;;;;;18.57;3.97;;;17.00;99.90;;;;;;5156077;27;20489;-77
2023/08/20 00:40:22;;;;;;;9.57;3.30;;;17.00;99.90;;;;;;5156405;27;20101;-78
2023/08/20 00:42:48;;;;;;;9.30;3.57;;;17.00;99.90;;;;;;5155326;27;20157;-77
2023/08/20 00:45:16;;;;;;;11.77;6.00;;;17.00;99.90;;;;;;5156333;27;20082;-77
2023/08/20 00:47:42;;;;;;;14.20;7.27;;;17.00;99.90;;;;;;5155945;27;20051;-77
2023/08/20 00:50:09;;;;;;;11.27;4.47;;;16.90;99.90;;;;;;5156366;27;20133;-78
2023/08/20 00:52:35;;;;;;;10.03;4.20;;;16.90;99.90;;;;;;5155833;27;20055;-75
2023/08/20 00:55:08;;;;;;;9.53;3.83;;;16.90;99.90;;;;;;5155971;27;20501;-77
2023/08/20 00:57:35;;;;;;;10.07;2.90;;;16.90;99.90;;;;;;5155936;27;20133;-78
2023/08/20 01:00:04;;;;;;;7.83;2.70;;;16.90;99.90;;;;;;5155698;27;20050;-77
2023/08/20 01:02:29;;;;;;;9.33;3.10;;;16.80;99.90;;;;;;5120888;27;20098;-78
2023/08/20 01:04:55;;;;;;;9.63;4.00;;;16.80;99.90;;;;;;5155496;27;20129;-78
2023/08/20 01:07:30;;;;;;;8.70;2.90;;;16.80;99.90;;;;;;5155623;27;20043;-78
2023/08/20 01:10:01;;;;;;;9.30;3.10;;;16.80;99.90;;;;;;5155459;27;20042;-78
2023/08/20 01:12:29;;;;;;;9.23;3.23;;;16.80;99.90;;;;;;5155904;27;20133;-78
2023/08/20 01:14:55;;;;;;;8.47;2.97;;;16.80;99.90;;;;;;5155273;27;20042;-77
2023/08/20 01:17:20;;;;;;;6.90;3.03;;;16.80;99.90;;;;;;5155859;27;20087;-77
2023/08/20 01:19:47;;;;;;;8.00;2.43;;;16.80;99.90;;;;;;5155092;27;20043;-77
2023/08/20 01:22:33;;;;;;;9.73;3.00;;;16.70;99.90;;;;;;5155728;27;20042;-77
2023/08/20 01:25:11;;;;;;;9.90;3.17;;;16.80;99.90;;;;;;5155143;27;20153;-78
2023/08/20 01:27:54;;;;;;;6.10;2.60;;;16.70;99.90;;;;;;5155226;27;20054;-77
2023/08/20 01:30:22;;;;;;;8.67;2.90;;;16.70;99.90;;;;;;5155396;27;20046;-78
2023/08/20 01:32:50;;;;;;;7.90;2.70;;;16.70;99.90;;;;;;5155039;27;20455;-77
2023/08/20 01:35:17;;;;;;;10.83;3.27;;;16.70;99.90;;;;;;5155510;27;20046;-77
2023/08/20 01:37:43;;;;;;;8.60;3.03;;;16.70;99.90;;;;;;5154886;27;20047;-76
2023/08/20 01:40:10;;;;;;;6.70;3.07;;;16.70;99.90;;;;;;5155055;27;20046;-77
2023/08/20 01:42:37;;;;;;;8.53;3.40;;;16.70;99.90;;;;;;5155280;27;20049;-77
2023/08/20 01:45:04;;;;;;;5.97;2.80;;;16.70;99.90;;;;;;5154782;27;20043;-77
2023/08/20 01:47:30;;;;;;;8.53;3.40;;;16.60;99.90;;;;;;5155183;27;20364;-78
2023/08/20 01:49:55;;;;;;;9.30;3.77;;;16.60;99.90;;;;;;5154307;27;20076;-78
2023/08/20 01:52:21;;;;;;;8.13;3.60;;;16.60;99.90;;;;;;5136738;27;20058;-77
2023/08/20 01:54:49;;;;;;;8.93;4.07;;;16.60;99.90;;;;;;5153426;27;20052;-77
2023/08/20 01:57:14;;;;;;;10.90;4.47;;;16.60;99.90;;;;;;5154941;27;20487;-77
2023/08/20 01:59:40;;;;;;;9.97;4.00;;;16.60;99.90;;;;;;5154894;27;20051;-78
2023/08/20 02:02:06;;;;;;;10.33;4.47;;;16.60;99.90;;;;;;5154529;27;20050;-78
2023/08/20 02:04:32;;;;;;;11.90;4.33;;;16.60;99.90;;;;;;5154768;27;20394;-78
2023/08/20 02:06:58;;;;;;;9.80;4.47;;;16.60;99.90;;;;;;5154779;27;20042;-78
2023/08/20 02:09:24;;;;;;;10.07;4.10;;;16.60;99.90;;;;;;5136399;27;20042;-78
2023/08/20 02:11:50;;;;;;;12.73;4.10;;;16.70;99.90;;;;;;5154433;27;20429;-77
2023/08/20 02:14:16;;;;;;;9.20;4.00;;;16.60;99.90;;;;;;5154708;27;20041;-77
2023/08/20 02:16:42;;;;;;;10.50;4.90;;;16.60;99.90;;;;;;5154690;27;20047;-77
2023/08/20 02:19:08;;;;;;;9.47;4.97;;;16.60;99.90;;;;;;5154405;27;20420;-77
2023/08/20 02:21:34;;;;;;;9.80;4.30;;;16.60;99.90;;;;;;5154601;27;20041;-77
2023/08/20 02:24:00;;;;;;;13.67;5.40;;;16.60;99.90;;;;;;5154332;27;20047;-77
2023/08/20 02:26:26;;;;;;;11.07;4.77;;;16.60;99.90;;;;;;5154271;27;20122;-77
2023/08/20 02:28:51;;;;;;;12.00;4.70;;;16.60;99.90;;;;;;5154486;27;20157;-77
2023/08/20 02:31:17;;;;;;;11.00;4.60;;;16.60;99.90;;;;;;5154748;27;20085;-77
2023/08/20 02:33:43;;;;;;;11.40;4.73;;;16.60;99.90;;;;;;5154203;27;20046;-77
2023/08/20 02:36:09;;;;;;;8.30;4.63;;;16.50;99.90;;;;;;5154203;27;20038;-77
2023/08/20 02:38:35;;;;;;;10.87;4.87;;;16.50;99.90;;;;;;5154132;27;20078;-78
2023/08/20 02:41:04;;;;;;;10.77;5.50;;;16.50;99.90;;;;;;5154126;27;20049;-77
2023/08/20 02:43:30;;;;;;;14.97;4.97;;;16.50;99.90;;;;;;5154599;27;20102;-77
2023/08/20 02:45:56;;;;;;;10.27;4.90;;;16.50;99.90;;;;;;5135803;27;20554;-77
2023/08/20 02:48:26;;;;;;;11.93;4.57;;;16.50;99.90;;;;;;5154060;27;20126;-77
2023/08/20 02:50:54;;;;;;;9.80;4.37;;;16.50;99.90;;;;;;5154098;27;20047;-77
2023/08/20 02:53:20;;;;;;;10.53;5.07;;;16.50;99.90;;;;;;5154394;27;20077;-77
2023/08/20 02:55:46;;;;;;;9.97;4.30;;;16.50;99.90;;;;;;5154375;27;20042;-78
2023/08/20 02:58:11;;;;;;;9.03;4.87;;;16.50;99.90;;;;;;5153983;27;20065;-77
2023/08/20 03:00:37;;;;;;;9.23;4.73;;;16.50;99.90;;;;;;5154151;27;20506;-78
2023/08/20 03:03:07;;;;;;;13.00;4.40;;;16.50;99.90;;;;;;5154048;27;20436;-78
2023/08/20 03:05:33;;;;;;;14.03;5.03;;;16.40;99.90;;;;;;5155390;27;20122;-78
2023/08/20 03:07:59;;;;;;;14.33;5.27;;;16.40;99.90;;;;;;5157941;27;20129;-78
2023/08/20 03:10:27;;;;;;;12.17;4.97;;;16.40;99.90;;;;;;5158093;27;20096;-78
2023/08/20 03:12:53;;;;;;;13.13;4.97;;;16.40;99.90;;;;;;5157794;27;20055;-76
2023/08/20 03:15:18;;;;;;;10.37;4.13;;;16.40;99.90;;;;;;5157678;27;20103;-77
2023/08/20 03:17:44;;;;;;;11.87;5.43;;;16.40;99.90;;;;;;5139867;27;20049;-78
2023/08/20 03:20:11;;;;;;;12.37;4.87;;;16.40;99.90;;;;;;5157527;27;20046;-78
2023/08/20 03:22:38;;;;;;;11.67;4.73;;;16.40;99.90;;;;;;5157856;27;20054;-78
2023/08/20 03:25:05;;;;;;;11.07;4.70;;;16.40;99.90;;;;;;5157504;27;20038;-78
2023/08/20 03:27:30;;;;;;;11.97;4.90;;;16.40;99.90;;;;;;5139573;27;20042;-78
2023/08/20 03:29:56;;;;;;;9.83;4.80;;;16.40;99.90;;;;;;5157459;27;20134;-77
2023/08/20 03:32:22;;;;;;;12.80;5.37;;;16.40;99.90;;;;;;5157682;27;20577;-78
2023/08/20 03:34:48;;;;;;;9.97;4.83;;;16.30;99.90;;;;;;5157280;27;20482;-78
2023/08/20 03:37:14;;;;;;;13.17;5.00;;;16.30;99.90;;;;;;5157305;27;20479;-78
2023/08/20 03:39:40;;;;;;;14.00;5.03;;;16.30;99.90;;;;;;5157449;27;20050;-78
2023/08/20 03:42:06;;;;;;;8.37;5.10;;;16.30;99.90;;;;;;5157142;27;20459;-78
2023/08/20 03:44:31;;;;;;;9.03;4.70;;;16.20;99.90;;;;;;5157444;27;20130;-78
2023/08/20 03:46:57;;;;;;;10.53;5.00;;;16.30;99.90;;;;;;5157379;27;20133;-76
2023/08/20 03:49:23;;;;;;;13.17;5.47;;;16.30;99.90;;;;;;5157307;27;20057;-77
2023/08/20 03:51:49;;;;;;;15.73;5.80;;;16.20;99.90;;;;;;5157178;27;20514;-78
2023/08/20 03:54:15;;;;;;;13.03;6.53;;;16.30;99.90;;;;;;5156991;27;20049;-78
2023/08/20 03:56:40;;;;;;;11.30;5.30;;;16.20;99.90;;;;;;5157656;27;20501;-78
2023/08/20 03:59:06;;;;;;;12.87;5.53;;;16.20;99.90;;;;;;5121360;27;20110;-77
2023/08/20 04:01:32;;;;;;;12.47;6.00;;;16.20;99.90;;;;;;5157007;27;20475;-78
2023/08/20 04:03:58;;;;;;;11.77;5.43;;;16.20;99.90;;;;;;5157203;27;20047;-78
2023/08/20 04:06:23;;;;;;;12.30;6.43;;;16.20;99.90;;;;;;5138289;27;20474;-78
2023/08/20 04:08:49;;;;;;;12.83;6.73;;;16.20;99.90;;;;;;5121828;27;20462;-77
2023/08/20 04:11:15;;;;;;;12.23;6.40;;;16.20;99.90;;;;;;5156758;27;20035;-78
2023/08/20 04:13:43;;;;;;;14.00;6.33;;;16.20;99.90;;;;;;5138340;27;20046;-79
2023/08/20 04:16:09;;;;;;;13.97;6.60;;;16.20;99.90;;;;;;5156591;27;20055;-78
2023/08/20 04:18:35;;;;;;;14.13;6.00;;;16.20;99.90;;;;;;5156038;27;20057;-78
2023/08/20 04:21:01;;;;;;;14.23;6.10;;;16.20;99.90;;;;;;5156610;27;20038;-78
2023/08/20 04:23:26;;;;;;;12.33;6.10;;;16.20;99.90;;;;;;5137983;27;20046;-78
2023/08/20 04:25:52;;;;;;;11.00;6.27;;;16.20;99.90;;;;;;5138423;27;20086;-78
2023/08/20 04:28:18;;;;;;;13.90;6.30;;;16.20;99.90;;;;;;5156325;27;20042;-78
2023/08/20 04:30:44;;;;;;;12.63;6.23;;;16.20;99.90;;;;;;5156837;27;20505;-78
2023/08/20 04:33:10;;;;;;;11.53;6.27;;;16.20;99.90;;;;;;5156328;27;20582;-78
2023/08/20 04:35:36;;;;;;;12.00;6.20;;;16.20;99.90;;;;;;5156574;27;20043;-79
2023/08/20 04:38:02;;;;;;;12.47;6.93;;;16.10;99.90;;;;;;5156421;27;20043;-78
2023/08/20 04:40:28;;;;;;;10.87;6.20;;;16.10;99.90;;;;;;5155727;27;20391;-78
2023/08/20 04:42:54;;;;;;;11.57;6.47;;;16.10;99.90;;;;;;5156345;27;20046;-78
2023/08/20 04:45:19;;;;;;;15.80;6.63;;;16.20;99.90;;;;;;5137547;27;20049;-78
2023/08/20 04:47:48;;;;;;;12.20;6.10;;;16.20;99.90;;;;;;5156188;27;20045;-78
2023/08/20 04:50:14;;;;;;;13.53;6.77;;;16.20;99.90;;;;;;5156106;27;20058;-78
2023/08/20 04:52:40;;;;;;;14.77;6.47;;;16.20;99.90;;;;;;5156049;27;20050;-78
2023/08/20 04:55:07;;;;;;;14.40;6.87;;;16.20;99.90;;;;;;5156045;27;20038;-79
2023/08/20 04:57:33;;;;;;;11.80;6.10;;;16.20;99.90;;;;;;5137463;27;20050;-79
2023/08/20 04:59:59;;;;;;;9.33;5.60;;;16.20;99.90;;;;;;5137576;27;20045;-78
2023/08/20 05:02:25;;;;;;;11.67;6.00;;;16.30;99.90;;;;;;5155721;27;20130;-78
2023/08/20 05:04:50;;;;;;;13.77;6.30;;;16.20;99.90;;;;;;5155593;27;20050;-79
2023/08/20 05:07:16;;;;;;;13.93;6.23;;;16.20;99.90;;;;;;5155610;27;20039;-78
2023/08/20 05:09:42;;;;;;;12.73;6.33;;;16.30;99.90;;;;;;5155755;27;20066;-79
2023/08/20 05:12:08;;;;;;;10.57;5.90;;;16.30;99.90;;;;;;5137294;27;20090;-79
2023/08/20 05:14:34;;;;;;;11.13;6.10;;;16.30;99.90;;;;;;5155714;27;20125;-79
2023/08/20 05:16:59;;;;;;;13.77;7.03;;;16.30;99.90;;;;;;5137235;27;20509;-79
2023/08/20 05:19:25;;;;;;;11.93;6.00;;;16.30;99.90;;;;;;5155326;27;20056;-79
2023/08/20 05:21:52;;;;;;;9.47;5.50;;;16.30;99.90;;;;;;5137133;27;20050;-78
2023/08/20 05:24:18;;;;;;;10.23;6.07;;;16.30;99.90;;;;;;5155234;27;20046;-79
2023/08/20 05:26:43;;;;;;;10.97;5.90;;;16.40;99.90;;;;;;5119964;27;20121;-78
2023/08/20 05:29:09;;;;;;;12.20;6.00;;;16.40;99.90;;;;;;5155613;27;20082;-79
2023/08/20 05:31:35;;;;;;;12.20;5.80;;;16.40;99.90;;;;;;5136673;27;20038;-78
2023/08/20 05:34:00;;;;;;;14.00;6.20;;;16.50;99.90;;;;;;5155317;27;20545;-78
2023/08/20 05:36:26;;;;;;;9.93;6.07;;;16.50;99.90;;;;;;5119636;27;20050;-78
2023/08/20 05:38:52;;;;;;;13.60;6.33;;;16.60;99.90;;;;;;5155261;27;20043;-80
2023/08/20 05:41:17;;;;;;;12.13;5.53;;;16.60;99.90;;;;;;5136438;27;20043;-78
2023/08/20 05:43:43;;;;;;;12.07;5.50;;;16.70;99.90;;;;;;5155483;27;20046;-79
2023/08/20 05:46:09;;;;;;;15.37;5.83;;;16.70;99.90;;;;;;5155148;27;20144;-79
2023/08/20 05:48:35;;;;;;;14.20;5.97;;;16.80;99.90;;;;;;5154861;27;20390;-78
2023/08/20 05:51:00;;;;;;;11.83;5.60;;;16.90;99.90;;;;;;5155245;27;20047;-78
2023/08/20 05:53:26;;;;;;;12.50;6.30;;;16.90;99.90;;;;;;5154745;27;20050;-78
2023/08/20 05:55:52;;;;;;;9.60;5.67;;;17.00;99.90;;;;;;5155003;27;20047;-78
2023/08/20 05:58:17;;;;;;;11.67;5.00;;;17.60;99.90;;;;;;5154997;27;20078;-78
2023/08/20 06:00:43;;;;;;;12.17;5.07;;;18.80;99.90;;;;;;5136667;27;20077;-79
2023/08/20 06:03:09;;;;;;;10.77;5.23;;;20.20;99.90;;;;;;5136754;27;20047;-79
2023/08/20 06:05:34;;;;;;;9.97;4.57;;;21.50;99.90;;;;;;5136475;27;20050;-79
2023/08/20 06:08:00;;;;;;;10.70;4.20;;;22.70;99.90;;;;;;5154913;27;20042;-79
2023/08/20 06:10:26;;;;;;;9.57;4.37;;;23.70;99.90;;;;;;5154931;27;20042;-78
2023/08/20 06:12:53;;;;;;;10.43;4.37;;;24.60;99.90;;;;;;5154869;27;20046;-79
2023/08/20 06:15:18;;;;;;;8.20;3.30;;;25.50;99.90;;;;;;5154517;27;20091;-78
2023/08/20 06:17:44;;;;;;;9.13;3.90;;;26.30;99.90;;;;;;5154860;27;20047;-79
2023/08/20 06:20:11;;;;;;;9.33;4.37;;;27.00;99.90;;;;;;5154893;27;20390;-79
2023/08/20 06:22:37;;;;;;;13.87;4.37;;;27.70;99.90;;;;;;5154541;27;20144;-79
2023/08/20 06:25:04;;;;;;;10.83;3.53;;;28.30;99.90;;;;;;5154712;27;20484;-78
2023/08/20 06:27:30;;;;;;;7.87;3.60;;;28.80;99.90;;;;;;5154277;27;20078;-77
2023/08/20 06:29:56;;;;;;;9.13;4.27;;;29.10;99.90;;;;;;5154702;27;20134;-78
2023/08/20 06:32:23;;;;;;;10.03;4.03;;;29.50;99.90;;;;;;5154422;27;20046;-79
2023/08/20 06:34:48;;;;;;;10.75;4.38;;;30.00;98.70;;;;;;5155224;27;20489;-79
2023/08/20 06:37:14;;;;;;;9.57;3.97;;;30.40;95.60;;;;;;5154745;27;20050;-79
2023/08/20 06:39:40;;;;;;;10.60;4.55;;;30.80;92.40;;;;;;5154191;27;20053;-77
2023/08/20 06:42:05;;;;;;;12.95;4.40;;;31.10;90.40;;;;;;5158363;27;20053;-77
2023/08/20 06:44:31;;;;;;;11.70;4.13;;;31.40;83.40;;;;;;5158379;27;20107;-76
2023/08/20 06:46:57;;;;;;;11.15;4.32;;;31.80;75.30;;;;;;5158640;27;20085;-77
2023/08/20 06:49:23;;;;;;;11.15;3.78;;;31.90;71.80;;;;;;5158151;27;20133;-77
2023/08/20 06:51:48;;;;;;;9.68;4.15;;;32.20;68.80;;;;;;5140075;27;20043;-77
2023/08/20 06:54:15;;;;;;;9.57;3.70;;;32.40;64.30;;;;;;5158483;27;20043;-77
2023/08/20 06:56:41;;;;;;;12.23;4.43;;;32.80;62.20;;;;;;5158084;27;20121;-77
2023/08/20 06:59:07;;;;;;;10.18;3.90;;;32.90;60.80;;;;;;5158355;27;20046;-77
2023/08/20 07:01:32;;;;;;;12.43;3.92;;;33.30;59.30;;;;;;5139207;27;20034;-77
2023/08/20 07:03:59;;;;;;;10.00;3.72;;;33.70;57.50;;;;;;5158149;27;20057;-77
2023/08/20 07:06:25;;;;;;;10.88;3.83;;;33.90;56.60;;;;;;5158041;27;20048;-76
2023/08/20 07:08:50;;;;;;;14.10;4.50;;;34.10;55.20;;;;;;5158095;27;20043;-77
2023/08/20 07:11:16;;;;;;;11.88;4.80;;;34.30;54.20;;;;;;5158078;27;20086;-77
2023/08/20 07:13:42;;;;;;;10.98;4.80;;;34.40;53.10;;;;;;5157749;27;20047;-77
2023/08/20 07:16:09;;;;;;;9.75;3.95;;;34.50;52.70;;;;;;5139607;27;20061;-77
2023/08/20 07:18:34;;;;;;;9.57;3.90;;;34.60;52.40;;;;;;5157673;27;20053;-77
2023/08/20 07:21:00;;;;;;;9.20;3.85;;;35.10;51.50;;;;;;5139350;27;20047;-78
2023/08/20 07:23:26;;;;;;;13.05;4.35;;;35.10;51.20;;;;;;5157738;27;20130;-77
2023/08/20 07:26:03;;;;;;;12.45;4.25;;;35.30;50.20;;;;;;5158272;27;20099;-77
2023/08/20 07:28:56;;;;;;;13.10;4.60;;;35.50;49.80;;;;;;5157583;27;20099;-77
2023/08/20 07:31:15;;;;;;;11.25;4.25;;;35.50;49.20;;;;;;5157765;27;20043;-79
2023/08/20 07:33:40;;;;;;;11.00;3.63;;;35.60;48.90;;;;;;5157461;27;20079;-77
2023/08/20 07:36:06;;;;;;;10.98;4.60;;;35.80;48.50;;;;;;5139744;27;20095;-73
2023/08/20 07:38:32;;;;;;;11.05;4.05;;;36.00;47.80;;;;;;5157289;27;20444;-77
2023/08/20 07:40:57;;;;;;;15.57;4.53;;;36.20;47.60;;;;;;5157784;27;20053;-79
2023/08/20 07:43:24;;;;;;;10.18;3.85;;;36.30;47.30;;;;;;5157589;27;20474;-79
2023/08/20 07:45:50;;;;;;;11.15;4.03;;;36.50;47.00;;;;;;5156802;27;20398;-79
2023/08/20 07:48:16;;;;;;;11.55;5.47;;;36.60;46.70;;;;;;5157557;27;20046;-79
2023/08/20 07:50:41;;;;;;;9.68;4.13;;;36.50;45.60;;;;;;5156745;27;20133;-79
2023/08/20 07:53:07;;;;;;;10.90;4.10;;;36.50;45.70;;;;;;5156278;27;20051;-79
2023/08/20 07:55:33;;;;;;;12.80;4.22;;;36.40;46.10;;;;;;5157080;27;20046;-79
2023/08/20 07:57:58;;;;;;;9.65;3.83;;;36.60;45.70;;;;;;5157398;27;20125;-79
2023/08/20 08:00:24;;;;;;;10.07;3.78;;;36.60;45.40;;;;;;5157234;27;20398;-80
2023/08/20 08:02:50;;;;;;;10.73;3.83;;;36.40;45.60;;;;;;5156636;27;20084;-79
2023/08/20 08:05:15;;;;;;;9.93;3.88;;;35.60;46.20;;;;;;5157217;27;20042;-79
2023/08/20 08:07:41;;;;;;;10.60;4.00;;;34.60;47.40;;;;;;5156951;27;20142;-79
2023/08/20 08:10:07;;;;;;;10.18;3.58;;;33.70;48.40;;;;;;5157083;27;20157;-79
2023/08/20 08:12:33;;;;;;;13.30;4.10;;;32.80;50.00;;;;;;5156724;27;20050;-77
2023/08/20 08:14:59;;;;;;;10.55;3.35;;;32.00;51.30;;;;;;5157235;27;20051;-79
2023/08/20 08:17:24;;;;;;;9.60;2.83;;;31.60;52.50;;;;;;5157107;27;20165;-78
2023/08/20 08:19:51;;;;;;;10.27;3.50;;;31.10;54.60;;;;;;5156250;27;20051;-78
2023/08/20 08:22:17;;;;;;;9.65;3.35;;;30.70;57.00;;;;;;5138838;27;20471;-79
2023/08/20 08:24:43;;;;;;;11.50;3.53;;;30.50;60.20;;;;;;5156548;27;20046;-80
2023/08/20 08:27:10;;;;;;;11.75;3.97;;;30.20;62.40;;;;;;5156707;27;20095;-81
2023/08/20 08:29:35;;;;;;;11.85;4.13;;;29.90;65.20;;;;;;5138234;27;20047;-80
2023/08/20 08:32:01;;;;;;;9.07;3.30;;;29.60;67.00;;;;;;5157214;27;20129;-78
2023/08/20 08:34:27;;;;;;;10.25;3.78;;;29.30;68.20;;;;;;5138207;27;20514;-82
2023/08/20 08:36:53;;;;;;;11.55;3.75;;;29.00;71.70;;;;;;5156200;27;20053;-79
2023/08/20 08:39:18;;;;;;;11.50;3.60;;;28.70;74.90;;;;;;5156832;27;20082;-82
2023/08/20 08:41:50;;;;;;;13.13;3.65;;;28.60;77.30;;;;;;5156274;27;20042;-81
2023/08/20 08:44:16;;;;;;;10.60;3.78;;;28.50;81.30;;;;;;5156541;27;20039;-81
2023/08/20 08:46:42;;;;;;;12.13;3.55;;;28.30;82.60;;;;;;5156143;27;20083;-81
2023/08/20 08:49:08;;;;;;;11.25;3.85;;;28.00;83.30;;;;;;5156136;27;20444;-81
2023/08/20 08:51:36;;;;;;;7.47;3.00;;;27.70;87.70;;;;;;5155976;27;20054;-76
2023/08/20 08:54:02;;;;;;;9.18;3.05;;;27.50;89.60;;;;;;5137727;27;20046;-81
2023/08/20 08:56:28;;;;;;;10.57;3.25;;;27.20;91.20;;;;;;5156301;27;20463;-81
2023/08/20 08:58:54;;;;;;;15.55;3.85;;;27.00;93.40;;;;;;5155860;27;20151;-80
2023/08/20 09:01:20;;;;;;;12.77;3.60;;;26.90;94.00;;;;;;5156065;27;20136;-81
2023/08/20 09:03:47;;;;;;;12.32;3.33;;;26.80;94.90;;;;;;5155298;27;20038;-79
2023/08/20 09:06:13;;;;;;;8.52;2.63;;;26.60;96.70;;;;;;5156140;27;20046;-80
2023/08/20 09:08:38;;;;;;;9.02;2.55;;;26.60;96.20;;;;;;5155580;27;20379;-79
2023/08/20 09:11:04;;;;;;;15.15;3.85;;;26.50;96.00;;;;;;5137609;27;20093;-79
2023/08/20 09:13:38;;;;;;;13.90;3.67;;;26.50;97.00;;;;;;5137396;27;20047;-80
2023/08/20 09:16:09;;;;;;;11.73;3.58;;;26.50;99.50;;;;;;5137245;27;20479;-81
2023/08/20 09:18:40;;;;;;;10.40;3.15;;;26.60;98.40;;;;;;5155755;27;20050;-79
2023/08/20 09:21:10;;;;;;;13.45;3.47;;;26.60;98.50;;;;;;5155347;27;20501;-79
2023/08/20 09:23:36;;;;;;;8.82;2.97;;;26.50;98.20;;;;;;5155737;27;20117;-79
2023/08/20 09:26:04;;;;;;;9.60;2.95;;;26.30;98.40;;;;;;5154926;27;20498;-81
2023/08/20 09:28:44;;;;;;;11.35;3.00;;;26.00;99.30;;;;;;5137052;27;20050;-79
2023/08/20 09:31:10;;;;;;;11.85;3.10;;;26.00;99.90;;;;;;5120086;27;20270;-79
2023/08/20 09:33:36;;;;;;;11.82;3.15;;;26.00;99.70;;;;;;5155309;27;20047;-80
2023/08/20 09:36:07;;;;;;;12.90;3.42;;;25.80;99.90;;;;;;5154872;27;20557;-79
2023/08/20 09:38:39;;;;;;;10.98;2.60;;;25.90;99.90;;;;;;5155299;27;20042;-80
2023/08/20 09:41:08;;;;;;;7.90;2.45;;;25.80;99.90;;;;;;5155206;27;20546;-79
2023/08/20 09:43:39;;;;;;;10.30;2.67;;;25.70;99.90;;;;;;5136665;27;20095;-80
2023/08/20 09:46:10;;;;;;;8.75;2.55;;;25.70;99.90;;;;;;5154967;27;20047;-81
2023/08/20 09:48:41;;;;;;;7.65;2.20;;;25.70;99.80;;;;;;5155419;27;20046;-81
2023/08/20 09:51:11;;;;;;;7.68;2.20;;;25.70;99.50;;;;;;5136425;27;20058;-80
2023/08/20 09:53:53;;;;;;;11.07;2.97;;;25.60;99.10;;;;;;5155121;27;20038;-81
2023/08/20 09:56:27;;;;;;;8.93;2.63;;;25.50;99.20;;;;;;5155128;27;20053;-80
2023/08/20 09:58:53;;;;;;;11.50;2.63;;;25.50;99.90;;;;;;5154817;27;20050;-79
2023/08/20 10:01:20;;;;;;;9.55;2.40;;;25.50;99.40;;;;;;5154837;27;20042;-80
2023/08/20 10:03:46;;;;;;;8.17;2.23;;;25.40;99.60;;;;;;5136135;27;20038;-81
2023/08/20 10:06:12;;;;;;;7.83;2.33;;;25.40;99.40;;;;;;5154876;27;20095;-81
2023/08/20 10:08:38;;;;;;;10.23;3.03;;;25.40;99.90;;;;;;5154910;27;20050;-80
2023/08/20 10:11:04;;;;;;;9.47;2.53;;;25.40;98.90;;;;;;5154505;27;20129;-81
2023/08/20 10:13:30;;;;;;;8.63;2.77;;;25.40;99.00;;;;;;5154784;27;20130;-80
2023/08/20 10:15:56;;;;;;;9.90;2.30;;;25.40;99.90;;;;;;5135156;27;20051;-79
2023/08/20 10:18:22;;;;;;;10.10;3.03;;;25.40;99.90;;;;;;5155255;27;20078;-80
2023/08/20 10:20:51;;;;;;;8.97;2.03;;;25.40;99.90;;;;;;5154276;27;20053;-79
2023/08/20 10:23:24;;;;;;;9.27;2.93;;;25.50;99.90;;;;;;5154865;27;20398;-81
2023/08/20 10:25:52;;;;;;;9.60;2.10;;;25.50;99.90;;;;;;5135916;27;20046;-80
2023/08/20 10:28:28;;;;;;;9.00;2.40;;;25.60;99.90;;;;;;5136243;27;20047;-79
2023/08/20 10:31:15;;;;;;;11.33;2.43;;;25.60;99.90;;;;;;5154474;27;20042;-78
2023/08/20 10:33:47;;;;;;;10.00;2.37;;;25.60;99.90;;;;;;5154606;27;20047;-78
2023/08/20 10:36:22;;;;;;;7.80;2.03;;;25.60;99.60;;;;;;5154742;27;20099;-78
2023/08/20 10:38:49;;;;;;;7.47;2.47;;;25.50;99.90;;;;;;5154564;27;20107;-77
2023/08/20 10:41:16;;;;;;;10.80;2.67;;;25.50;99.30;;;;;;5154384;27;20039;-78
2023/08/20 10:43:48;;;;;;;8.00;3.07;;;25.40;99.20;;;;;;5154639;27;20066;-80
2023/08/20 10:46:22;;;;;;;10.10;2.40;;;25.40;99.40;;;;;;5154743;27;20398;-80
2023/08/20 10:48:52;;;;;;;12.02;3.00;;;25.30;99.10;;;;;;5135981;27;20146;-77
2023/08/20 10:51:24;;;;;;;7.90;2.30;;;25.20;99.80;;;;;;5135433;27;20055;-79
2023/08/20 10:53:59;;;;;;;7.93;2.77;;;25.20;99.90;;;;;;5136011;27;20367;-80
2023/08/20 10:56:40;;;;;;;14.27;2.60;;;25.30;99.90;;;;;;5154643;27;20071;-79
2023/08/20 10:59:22;;;;;;;7.87;2.50;;;25.30;99.90;;;;;;5154117;27;20050;-82
2023/08/20 11:01:53;;;;;;;10.70;2.37;;;25.20;98.80;;;;;;5136046;27;20078;-78
2023/08/20 11:04:20;;;;;;;7.10;1.90;;;25.10;99.00;;;;;;5136548;27;20050;-82
2023/08/20 11:06:49;;;;;;;11.13;2.37;;;25.10;98.90;;;;;;5154171;27;20402;-81
2023/08/20 11:09:15;;;;;;;7.73;2.17;;;25.10;99.60;;;;;;5154648;27;20046;-82
2023/08/20 11:11:41;;;;;;;9.97;2.53;;;25.10;99.80;;;;;;5136066;27;20496;-81
2023/08/20 11:14:13;;;;;;;10.03;3.17;;;25.10;99.80;;;;;;5135754;27;20046;-82
2023/08/20 11:16:39;;;;;;;8.60;2.23;;;25.00;99.90;;;;;;5136167;27;20073;-82
2023/08/20 11:19:08;;;;;;;6.87;2.27;;;25.00;99.90;;;;;;5153909;27;20125;-77
2023/08/20 11:21:35;;;;;;;7.03;2.13;;;24.90;99.90;;;;;;5135480;27;20034;-78
2023/08/20 11:24:02;;;;;;;9.40;2.60;;;25.00;99.90;;;;;;5153755;27;20038;-79
2023/08/20 11:26:27;;;;;;;11.13;2.47;;;25.10;99.90;;;;;;5136779;27;20074;-79
2023/08/20 11:28:53;;;;;;;8.53;2.73;;;25.10;99.90;;;;;;5139311;27;20045;-77
2023/08/20 11:31:19;;;;;;;7.70;2.00;;;25.20;99.90;;;;;;5157710;27;20416;-79
2023/08/20 11:33:47;;;;;;;7.90;2.00;;;25.30;99.90;;;;;;5157424;27;20378;-78
2023/08/20 11:36:16;;;;;;;6.07;2.00;;;25.30;99.60;;;;;;5157329;27;20086;-78
2023/08/20 11:38:41;;;;;;;9.93;2.47;;;25.40;99.90;;;;;;5157601;27;20086;-78
2023/08/20 11:41:07;;;;;;;6.20;2.10;;;25.40;99.90;;;;;;5157259;27;20102;-77
2023/08/20 11:43:33;;;;;;;8.17;2.20;;;25.40;99.90;;;;;;5157813;27;20043;-78
2023/08/20 11:45:58;;;;;;;5.97;1.90;;;25.40;99.80;;;;;;5138808;27;20462;-79
2023/08/20 11:48:24;;;;;;;10.93;2.83;;;25.40;99.90;;;;;;5157365;27;20039;-79
2023/08/20 11:50:50;;;;;;;6.00;1.70;;;25.40;98.80;;;;;;5157731;27;20470;-80
2023/08/20 11:53:22;;;;;;;7.30;2.03;;;25.40;98.30;;;;;;5138612;27;20439;-80
2023/08/20 11:55:48;;;;;;;6.30;2.10;;;25.40;96.60;;;;;;5157474;27;20058;-72
2023/08/20 11:58:14;;;;;;;6.83;2.00;;;25.30;95.70;;;;;;5156967;27;20046;-72
2023/08/20 12:00:40;;;;;;;7.07;1.60;;;25.20;95.60;;;;;;5138915;27;20047;-79
2023/08/20 12:03:09;;;;;;;9.10;2.53;;;25.20;95.70;;;;;;5138582;27;20490;-76
2023/08/20 12:05:34;;;;;;;7.50;1.97;;;25.10;96.80;;;;;;5157152;27;20119;-78
2023/08/20 12:08:04;;;;;;;8.87;2.40;;;25.10;96.40;;;;;;5156691;27;20486;-77
2023/08/20 12:10:32;;;;;;;8.50;2.03;;;25.10;96.10;;;;;;5156917;27;20038;-78
2023/08/20 12:12:58;;;;;;;11.00;2.27;;;25.10;96.50;;;;;;5156688;27;20047;-76
2023/08/20 12:15:25;;;;;;;8.03;1.90;;;25.20;96.60;;;;;;5156840;27;20077;-76
2023/08/20 12:18:05;;;;;;;7.57;2.27;;;25.10;96.70;;;;;;5156790;27;20071;-76
2023/08/20 12:20:32;;;;;;;8.27;1.90;;;25.10;97.40;;;;;;5137937;27;20498;-76
2023/08/20 12:23:01;;;;;;;9.57;2.23;;;25.10;98.00;;;;;;5156444;27;20065;-75
2023/08/20 12:25:29;;;;;;;6.47;2.20;;;25.10;97.30;;;;;;5156511;27;20043;-75
2023/08/20 12:27:56;;;;;;;6.87;2.00;;;25.10;97.20;;;;;;5156595;27;20082;-79
2023/08/20 12:30:21;;;;;;;6.60;1.60;;;25.10;96.80;;;;;;5156036;27;20065;-82
2023/08/20 12:32:47;;;;;;;8.03;2.30;;;25.10;97.00;;;;;;5156431;27;20046;-79
2023/08/20 12:35:13;;;;;;;8.33;2.07;;;25.00;97.70;;;;;;5155886;27;20047;-79
2023/08/20 12:37:39;;;;;;;9.73;2.37;;;25.00;97.80;;;;;;5154745;27;20397;-78
2023/08/20 12:40:10;;;;;;;6.57;1.93;;;25.00;97.80;;;;;;5155463;27;20068;-79